Thunder radar more information blitzortung!


avis per Pluja more information rain snow radar


Visita la nostra xarxa de llocs de meteo:

Template documentation
and downloads

And another site



Rain From: 16-11-2018 00:00 Until: 09:59 warning for: Rain Level: Yellow info button

Pagina Historial Weather Underground text

Diari Resum January 1, 2018 Unitats:  Mètric    Imperial   Tant
« Previous Dia
SegĂźent Dia »
Diari Setmana Mensual Anual Personalitzada
  Maxima: Minima: Media:
Temperatura: -17.8 °C -13.7 °C -11.3 °C
Punt de rosada: -17.8 °C -18.9 °C -17.5 °C
Humitat: Humidity % 39 % 47 %
Wind Speed: 0 km/h 0 km/h 16.1 km/h
RĂ fegues de vent: 0 km/h - -
Vent:- - WSW
Pression baro: 0 hPa 34462.7 hPa -
Precipitacions: 0 mm    
Historical Graphs
 
 
Dades de taula per January 1, 2018
Temps Temperatura Punt de rosada Pression baro Vent Wind Speed RĂ fegues de vent Humitat Rainfall Rate (Hourly)
-17.8 °C -17.8 °C 0 hPa Calm     Humidity % 0 mm
00:02 -10.9 °C -15.8 °C 34462.7 hPa WNW 11.9 km/h 11.9 km/h 55 % 0 mm
00:04 -10.9 °C -15.8 °C 34462.7 hPa West 9 km/h 9 km/h 55 % 0 mm
00:05 -13.4 °C -18.6 °C 34601.5 hPa West 7.7 km/h 20.8 km/h 52 % 0 mm
00:07 -10.9 °C -15.8 °C 34462.7 hPa WSW 6 km/h 6 km/h 55 % 0 mm
00:10 -11 °C -15.9 °C 34462.7 hPa WNW 9 km/h 9 km/h 55 % 0 mm
00:13 -11 °C -15.9 °C 34462.7 hPa SSW 11.9 km/h 11.9 km/h 55 % 0 mm
00:15 -13.4 °C -18.6 °C 34601.5 hPa WSW 15.6 km/h 28.5 km/h 52 % 0 mm
00:18 -11.1 °C -15.9 °C 34462.7 hPa WSW 11.9 km/h 11.9 km/h 55 % 0 mm
00:21 -11.1 °C -16 °C 34462.7 hPa WSW 15.6 km/h 15.6 km/h 55 % 0 mm
00:24 -11.1 °C -16 °C 34462.7 hPa WSW 16.1 km/h 16.1 km/h 55 % 0 mm
00:25 -13.3 °C -18.7 °C 34635.4 hPa West 20.8 km/h 31.1 km/h 51 % 0 mm
00:35 -13.3 °C -18.7 °C 34635.4 hPa West 18.2 km/h 28.5 km/h 51 % 0 mm
00:45 -13.3 °C -18.7 °C 34635.4 hPa West 18.2 km/h 25.9 km/h 51 % 0 mm
00:55 -13.4 °C -18.7 °C 34635.4 hPa WSW 20.8 km/h 23.3 km/h 51 % 0 mm
01:05 -13.4 °C -18.7 °C 34669.3 hPa WSW 18.2 km/h 20.8 km/h 51 % 0 mm
01:15 -13.4 °C -18.7 °C 34669.3 hPa WSW 15.6 km/h 28.5 km/h 51 % 0 mm
01:25 -13.5 °C -18.8 °C 34669.3 hPa WSW 15.6 km/h 25.9 km/h 51 % 0 mm
01:35 -13.5 °C -18.8 °C 34669.3 hPa WSW 12.9 km/h 25.9 km/h 51 % 0 mm
01:45 -13.6 °C -18.8 °C 34669.3 hPa WSW 12.9 km/h 20.8 km/h 51 % 0 mm
01:55 -13.6 °C -18.8 °C 34669.3 hPa West 7.7 km/h 23.3 km/h 51 % 0 mm
02:05 -13.6 °C -18.8 °C 34669.3 hPa West 12.9 km/h 20.8 km/h 51 % 0 mm
02:15 -13.6 °C -18.8 °C 34669.3 hPa WSW 15.6 km/h 20.8 km/h 51 % 0 mm
02:25 -13.6 °C -18.8 °C 34669.3 hPa WSW 7.7 km/h 15.6 km/h 51 % 0 mm
02:35 -13.6 °C -18.9 °C 34669.3 hPa SW 7.7 km/h 15.6 km/h 51 % 0 mm
02:45 -13.6 °C -18.9 °C 34669.3 hPa SW 7.7 km/h 7.7 km/h 51 % 0 mm
02:55 -13.7 °C -18.9 °C 34740.4 hPa SSW 7.7 km/h 20.8 km/h 51 % 0 mm
03:05 -13.6 °C -18.9 °C 34740.4 hPa WSW 7.7 km/h 7.7 km/h 51 % 0 mm
03:15 -13.5 °C -18.8 °C 34740.4 hPa WSW 12.9 km/h 15.6 km/h 51 % 0 mm
03:25 -13.3 °C -18.7 °C 34740.4 hPa West 12.9 km/h 20.8 km/h 51 % 0 mm
03:35 -13.2 °C -18.7 °C 34740.4 hPa West 23.3 km/h 33.6 km/h 50 % 0 mm
03:45 -13 °C -18.5 °C 34740.4 hPa West 15.6 km/h 15.6 km/h 50 % 0 mm
03:55 -12.8 °C -18.3 °C 34740.4 hPa West 18.2 km/h 28.5 km/h 50 % 0 mm
04:05 -12.7 °C -18.4 °C 34740.4 hPa WSW 7.7 km/h 33.6 km/h 49 % 0 mm
04:15 -12.6 °C -18.3 °C 34740.4 hPa West 15.6 km/h 20.8 km/h 49 % 0 mm
04:25 -12.4 °C -18.1 °C 34703.1 hPa West 12.9 km/h 33.6 km/h 49 % 0 mm
04:35 -12.4 °C -18.2 °C 34774.2 hPa WSW 20.8 km/h 25.9 km/h 48 % 0 mm
04:45 -12.2 °C -18.1 °C 34774.2 hPa WSW 18.2 km/h 20.8 km/h 48 % 0 mm
04:55 -12.2 °C -18.1 °C 34774.2 hPa West 15.6 km/h 49.2 km/h 48 % 0 mm
05:05 -12.1 °C -18.1 °C 34774.2 hPa West 20.8 km/h 33.6 km/h 47 % 0 mm
11:09 -11.9 °C -17.9 °C 34774.2 hPa WSW 32.8 km/h 32.8 km/h 47 % 0 mm
11:10 -11.9 °C -17.9 °C 34774.2 hPa WSW 23.8 km/h 23.8 km/h 47 % 0 mm
11:15 -11.9 °C -17.9 °C 34774.2 hPa SSW 23.8 km/h 23.8 km/h 47 % 0 mm
11:16 -11.8 °C -17.9 °C 34774.2 hPa West 23.8 km/h 23.8 km/h 47 % 0 mm
11:21 -11.8 °C -17.8 °C 34774.2 hPa West 22 km/h 22 km/h 47 % 0 mm
11:23 -11.8 °C -18 °C 34774.2 hPa WSW 26.9 km/h 26.9 km/h 46 % 0 mm
11:28 -11.7 °C -17.9 °C 34774.2 hPa WSW 15 km/h 15 km/h 46 % 0 mm
11:33 -11.7 °C -17.9 °C 34774.2 hPa WSW 45.5 km/h 45.5 km/h 46 % 0 mm
11:37 -11.7 °C -17.9 °C 34740.4 hPa West 20.3 km/h 20.3 km/h 46 % 0 mm
11:40 -11.7 °C -17.9 °C 34740.4 hPa WSW 15 km/h 15 km/h 46 % 0 mm
11:45 -11.5 °C -17.7 °C 34740.4 hPa West 15 km/h 15 km/h 46 % 0 mm
11:47 -11.4 °C -17.7 °C 34740.4 hPa South 11.9 km/h 11.9 km/h 46 % 0 mm
11:50 -11.4 °C -17.7 °C 34740.4 hPa WSW 26.9 km/h 26.9 km/h 46 % 0 mm
11:56 -11.4 °C -17.6 °C 34740.4 hPa WSW 11.9 km/h 11.9 km/h 46 % 0 mm
12:00 -11.3 °C -17.6 °C 34740.4 hPa WSW 15 km/h 15 km/h 46 % 0 mm
12:01 -11.3 °C -17.6 °C 34740.4 hPa WNW 15 km/h 15 km/h 46 % 0 mm
12:06 -11.3 °C -17.6 °C 34740.4 hPa West 26.4 km/h 26.4 km/h 46 % 0 mm
12:09 -11.3 °C -17.7 °C 34740.4 hPa WSW 17.9 km/h 17.9 km/h 45 % 0 mm
12:14 -11.2 °C -17.7 °C 34740.4 hPa WSW 16.1 km/h 16.1 km/h 45 % 0 mm
12:15 -11.2 °C -17.4 °C 34740.4 hPa West 15.3 km/h 15.3 km/h 46 % 0 mm
12:20 -11.1 °C -17.6 °C 34740.4 hPa NNW 15 km/h 15 km/h 45 % 0 mm
12:21 -11.1 °C -17.6 °C 34740.4 hPa SE 15 km/h 15 km/h 45 % 0 mm
12:26 -11 °C -17.4 °C 34740.4 hPa WSW 11.9 km/h 11.9 km/h 45 % 0 mm
12:28 -11 °C -17.4 °C 34740.4 hPa WNW 15 km/h 15 km/h 45 % 0 mm
12:33 -11 °C -17.4 °C 34740.4 hPa West 15 km/h 15 km/h 45 % 0 mm
12:34 -11 °C -17.4 °C 34740.4 hPa SSW 17.9 km/h 17.9 km/h 45 % 0 mm
12:39 -10.9 °C -17.3 °C 34703.1 hPa NW 9 km/h 9 km/h 45 % 0 mm
12:40 -10.8 °C -17.3 °C 34703.1 hPa South 9 km/h 9 km/h 45 % 0 mm
12:45 -10.7 °C -17.2 °C 34703.1 hPa WSW 15 km/h 15 km/h 45 % 0 mm
12:46 -10.7 °C -17.2 °C 34703.1 hPa WSW 15.3 km/h 15.3 km/h 45 % 0 mm
12:51 -10.6 °C -17.1 °C 34703.1 hPa SE 15 km/h 15 km/h 45 % 0 mm
12:52 -10.6 °C -17.1 °C 34669.3 hPa SE 11.9 km/h 11.9 km/h 45 % 0 mm
12:57 -10.3 °C -16.8 °C 34669.3 hPa WSW 14.5 km/h 14.5 km/h 45 % 0 mm
12:59 -10.4 °C -16.9 °C 34669.3 hPa NW 17.9 km/h 17.9 km/h 45 % 0 mm
13:04 -10.3 °C -16.8 °C 34669.3 hPa WSW 11.9 km/h 11.9 km/h 45 % 0 mm
13:09 -10.3 °C -17 °C 34669.3 hPa SW 20.9 km/h 20.9 km/h 44 % 0 mm
13:14 -10.6 °C -17.2 °C 34669.3 hPa WNW 20.9 km/h 20.9 km/h 44 % 0 mm
13:15 -10.6 °C -17.2 °C 34669.3 hPa West 12.9 km/h 20.8 km/h 44 % 0 mm
13:20 -10.6 °C -17.4 °C 34669.3 hPa WNW 10.3 km/h 10.3 km/h 43 % 0 mm
13:22 -10.6 °C -17.3 °C 34669.3 hPa SW 11.9 km/h 11.9 km/h 44 % 0 mm
13:24 -10.6 °C -17.2 °C 34669.3 hPa West 11.9 km/h 11.9 km/h 44 % 0 mm
13:27 -10.3 °C -17 °C 34669.3 hPa SW 6.8 km/h 6.8 km/h 44 % 0 mm
13:30 -10.2 °C -17.1 °C 34669.3 hPa WSW 17.9 km/h 17.9 km/h 43 % 0 mm
13:33 -10.2 °C -17.1 °C 34669.3 hPa WNW 20.9 km/h 20.9 km/h 43 % 0 mm
13:36 -10.2 °C -17.3 °C 34669.3 hPa WSW 15 km/h 15 km/h 42 % 0 mm
13:39 -10.2 °C -17.2 °C 34669.3 hPa NW 17.9 km/h 17.9 km/h 42 % 0 mm
13:44 -10.1 °C -17.2 °C 34669.3 hPa WNW 17.9 km/h 17.9 km/h 42 % 0 mm
13:45 -10.1 °C -17.2 °C 34669.3 hPa SW 17.9 km/h 17.9 km/h 42 % 0 mm
13:49 -10.2 °C -17.4 °C 34669.3 hPa WSW 15 km/h 15 km/h 41 % 0 mm
13:51 -10.2 °C -17.4 °C 34669.3 hPa SW 17.9 km/h 17.9 km/h 41 % 0 mm
13:55 -10.2 °C -17.6 °C 34635.4 hPa SW 35.7 km/h 35.7 km/h 40 % 0 mm
13:57 -10.2 °C -17.7 °C 34635.4 hPa West 32.8 km/h 32.8 km/h 40 % 0 mm
14:02 -10.2 °C -17.6 °C 34635.4 hPa WSW 26.4 km/h 26.4 km/h 40 % 0 mm
14:04 -10.2 °C -17.6 °C 34635.4 hPa WSW 15 km/h 15 km/h 40 % 0 mm
14:08 -10.2 °C -17.7 °C 34635.4 hPa SSE 15 km/h 15 km/h 40 % 0 mm
14:13 -10.3 °C -17.7 °C 34635.4 hPa SW 20.9 km/h 20.9 km/h 40 % 0 mm
14:18 -10.3 °C -17.7 °C 34635.4 hPa SW 20.9 km/h 20.9 km/h 40 % 0 mm
14:21 -10.2 °C -17.7 °C 34635.4 hPa WSW 20.9 km/h 20.9 km/h 40 % 0 mm
14:24 -10.2 °C -17.6 °C 34601.5 hPa SW 23.8 km/h 23.8 km/h 40 % 0 mm
14:28 -10.2 °C -17.6 °C 34601.5 hPa SSW 20.9 km/h 20.9 km/h 40 % 0 mm
14:29 -10.2 °C -17.6 °C 34601.5 hPa West 25.1 km/h 25.1 km/h 40 % 0 mm
14:33 -10.2 °C -17.7 °C 34601.5 hPa WSW 15 km/h 15 km/h 40 % 0 mm
14:35 -10.2 °C -17.7 °C 34601.5 hPa South 20.9 km/h 20.9 km/h 40 % 0 mm
14:40 -10.2 °C -17.7 °C 34601.5 hPa WSW 20.9 km/h 20.9 km/h 40 % 0 mm
14:42 -10.2 °C -17.4 °C 34601.5 hPa WSW 29.5 km/h 29.5 km/h 41 % 0 mm
14:44 -10.2 °C -17.7 °C 34601.5 hPa West 20.9 km/h 20.9 km/h 40 % 0 mm
14:47 -10.3 °C -17.7 °C 34601.5 hPa West 20.9 km/h 20.9 km/h 40 % 0 mm
14:52 -10.3 °C -17.9 °C 34601.5 hPa WSW 38.8 km/h 38.8 km/h 39 % 0 mm
14:53 -10.3 °C -17.7 °C 34601.5 hPa WSW 29.8 km/h 29.8 km/h 40 % 0 mm
14:55 -10.3 °C -17.7 °C 34601.5 hPa WSW 20.9 km/h 20.9 km/h 40 % 0 mm
14:59 -10.3 °C -17.7 °C 34601.5 hPa WNW 27.7 km/h 27.7 km/h 40 % 0 mm
15:01 -10.3 °C -17.9 °C 34601.5 hPa WSW 32.8 km/h 32.8 km/h 39 % 0 mm
15:05 -10.3 °C -17.9 °C 34601.5 hPa West 26.9 km/h 26.9 km/h 39 % 0 mm
15:10 -10.3 °C -17.9 °C 34601.5 hPa SW 23.8 km/h 23.8 km/h 39 % 0 mm
15:11 -10.3 °C -17.9 °C 34601.5 hPa WNW 23.8 km/h 23.8 km/h 39 % 0 mm
15:16 -10.2 °C -17.8 °C 34601.5 hPa West 23.8 km/h 23.8 km/h 39 % 0 mm
15:19 -10.3 °C -17.9 °C 34601.5 hPa WSW 32.8 km/h 32.8 km/h 39 % 0 mm
15:22 -10.3 °C -17.9 °C 34601.5 hPa SSE 20.9 km/h 20.9 km/h 39 % 0 mm
15:27 -10.4 °C -17.8 °C 34601.5 hPa WSW 16.6 km/h 16.6 km/h 40 % 0 mm
15:28 -10.4 °C -17.8 °C 34601.5 hPa WSW 16.6 km/h 16.6 km/h 40 % 0 mm
15:33 -10.3 °C -17.7 °C 34601.5 hPa SW 15 km/h 15 km/h 40 % 0 mm
15:34 -10.3 °C -17.7 °C 34601.5 hPa WSW 15 km/h 15 km/h 40 % 0 mm
15:36 -10.2 °C -17.7 °C 34601.5 hPa West 14 km/h 14 km/h 40 % 0 mm
15:41 -10.3 °C -17.7 °C 34567.7 hPa South 20.9 km/h 20.9 km/h 40 % 0 mm
15:43 -10.3 °C -17.7 °C 34567.7 hPa WSW 17.9 km/h 17.9 km/h 40 % 0 mm
15:47 -10.2 °C -17.7 °C 34567.7 hPa West 23.8 km/h 23.8 km/h 40 % 0 mm
15:52 -10.1 °C -17.6 °C 34601.5 hPa SW 26.9 km/h 26.9 km/h 40 % 0 mm
15:53 -10.2 °C -17.6 °C 34601.5 hPa West 26.9 km/h 26.9 km/h 40 % 0 mm
15:56 -10.3 °C -17.7 °C 34601.5 hPa WSW 17.9 km/h 17.9 km/h 40 % 0 mm
16:01 -10.4 °C -17.8 °C 34601.5 hPa WSW 20.3 km/h 20.3 km/h 40 % 0 mm
16:02 -10.4 °C -17.8 °C 34601.5 hPa West 17.9 km/h 17.9 km/h 40 % 0 mm
16:03 -10.5 °C -17.9 °C 34601.5 hPa West 20.9 km/h 20.9 km/h 40 % 0 mm
16:07 -10.6 °C -17.9 °C 34601.5 hPa WSW 17.9 km/h 17.9 km/h 40 % 0 mm
16:12 -10.6 °C -17.9 °C 34601.5 hPa WNW 15 km/h 15 km/h 40 % 0 mm
16:13 -10.6 °C -17.9 °C 34601.5 hPa WNW 15 km/h 15 km/h 40 % 0 mm
16:15 -10.6 °C -18 °C 34601.5 hPa WSW 11.9 km/h 12.2 km/h 40 % 0 mm
16:19 -10.6 °C -18 °C 34601.5 hPa WSW 23.8 km/h 23.8 km/h 40 % 0 mm
16:20 -10.6 °C -18 °C 34601.5 hPa West 15 km/h 16.6 km/h 40 % 0 mm
16:21 -10.7 °C -18.1 °C 34601.5 hPa WNW 15 km/h 15 km/h 40 % 0 mm
16:24 -10.6 °C -18 °C 34601.5 hPa WSW 26.9 km/h 26.9 km/h 40 % 0 mm
16:26 -10.6 °C -18 °C 34601.5 hPa WNW 26.9 km/h 26.9 km/h 40 % 0 mm
16:29 -10.7 °C -18.1 °C 34601.5 hPa SW 29.8 km/h 29.8 km/h 40 % 0 mm
16:31 -10.7 °C -18.1 °C 34601.5 hPa WSW 23.8 km/h 23.8 km/h 40 % 0 mm
16:36 -10.7 °C -18.1 °C 34601.5 hPa WNW 20.9 km/h 20.9 km/h 40 % 0 mm
16:37 -10.7 °C -18.1 °C 34601.5 hPa SW 20.9 km/h 20.9 km/h 40 % 0 mm
16:42 -10.6 °C -18 °C 34601.5 hPa SSW 20.9 km/h 20.9 km/h 40 % 0 mm
16:47 -10.7 °C -17.9 °C 34601.5 hPa WSW 18.3 km/h 18.3 km/h 41 % 0 mm
16:48 -10.7 °C -17.9 °C 34601.5 hPa WNW 17.9 km/h 17.9 km/h 41 % 0 mm
16:51 -10.7 °C -17.9 °C 34601.5 hPa WSW 20.9 km/h 20.9 km/h 41 % 0 mm
16:53 -10.7 °C -17.9 °C 34601.5 hPa WSW 15.3 km/h 15.3 km/h 41 % 0 mm
16:58 -10.7 °C -17.9 °C 34601.5 hPa WSW 20.9 km/h 20.9 km/h 41 % 0 mm
17:00 -10.7 °C -17.9 °C 34601.5 hPa WSW 15 km/h 15 km/h 41 % 0 mm
17:05 -10.8 °C -17.9 °C 34601.5 hPa WSW 15 km/h 15 km/h 41 % 0 mm
17:08 -10.8 °C -18 °C 34567.7 hPa SSW 15 km/h 15 km/h 41 % 0 mm
17:10 -10.8 °C -18 °C 34567.7 hPa WSW 16.1 km/h 16.1 km/h 41 % 0 mm
17:11 -10.8 °C -18 °C 34567.7 hPa SE 16.1 km/h 16.1 km/h 41 % 0 mm
17:16 -10.9 °C -18.1 °C 34567.7 hPa WSW 11.9 km/h 11.9 km/h 41 % 0 mm
17:17 -10.9 °C -18.1 °C 34567.7 hPa WSW 15 km/h 15 km/h 41 % 0 mm
17:22 -11 °C -18.2 °C 34567.7 hPa West 9 km/h 9 km/h 41 % 0 mm
17:23 -11 °C -18.2 °C 34567.7 hPa West 6 km/h 7.6 km/h 41 % 0 mm
17:27 -11.1 °C -18.2 °C 34567.7 hPa SW 10.3 km/h 10.3 km/h 41 % 0 mm
17:28 -11.1 °C -18.2 °C 34567.7 hPa West 14 km/h 14 km/h 41 % 0 mm
17:33 -11.1 °C -18.3 °C 34567.7 hPa SW 6.8 km/h 6.8 km/h 41 % 0 mm
17:34 -11.1 °C -18.3 °C 34567.7 hPa SW 20.3 km/h 20.3 km/h 41 % 0 mm
17:38 -11.1 °C -18.3 °C 34533.8 hPa West 6 km/h 6 km/h 41 % 0 mm
17:43 -11.1 °C -18.1 °C 34533.8 hPa WSW 6 km/h 6 km/h 42 % 0 mm
17:44 -11.1 °C -18.1 °C 34533.8 hPa WSW 6 km/h 6 km/h 42 % 0 mm
17:49 -11.2 °C -18.2 °C 34533.8 hPa SW 3.1 km/h 3.1 km/h 42 % 0 mm
17:53 -11.2 °C -18.2 °C 34496.6 hPa WSW 4.2 km/h   42 % 0 mm
17:57 -11.3 °C -18.2 °C 34496.6 hPa SW 3.7 km/h   42 % 0 mm
18:02 -11.3 °C -18.3 °C 34496.6 hPa SW 6 km/h 6 km/h 42 % 0 mm
18:03 -11.3 °C -18.3 °C 34496.6 hPa SW 6.3 km/h 6.3 km/h 42 % 0 mm
18:08 -11.3 °C -18.2 °C 34533.8 hPa SW 9 km/h 9 km/h 42 % 0 mm
18:10 -11.3 °C -18.2 °C 34533.8 hPa SW 6 km/h 6 km/h 42 % 0 mm
18:12 -11.3 °C -18.2 °C 34533.8 hPa West 6 km/h 6 km/h 42 % 0 mm
18:15 -11.3 °C -18.2 °C 34533.8 hPa WSW 6 km/h 6 km/h 42 % 0 mm
18:17 -11.3 °C -18.3 °C 34533.8 hPa West 6 km/h 6 km/h 42 % 0 mm
18:19 -11.3 °C -18.3 °C 34533.8 hPa SW 6 km/h 6 km/h 42 % 0 mm
18:23 -11.4 °C -18.3 °C 34533.8 hPa West 6 km/h 6 km/h 42 % 0 mm
18:25 -11.7 °C -16.6 °C 34533.8 hPa West 15.6 km/h 23.3 km/h 55 % 0 mm
18:28 -11.4 °C -18.3 °C 34533.8 hPa West 6 km/h 6 km/h 42 % 0 mm
18:29 -11.4 °C -18.3 °C 34533.8 hPa West 3.1 km/h   42 % 0 mm
18:33 -11.4 °C -18.2 °C 34533.8 hPa Calm     43 % 0 mm
18:35 -11.7 °C -16.5 °C 34533.8 hPa West 12.9 km/h 28.5 km/h 55 % 0 mm
18:36 -11.5 °C -18.2 °C 34533.8 hPa WNW 6.3 km/h 6.3 km/h 43 % 0 mm
18:39 -11.5 °C -18.2 °C 34496.6 hPa Calm     43 % 0 mm
18:42 -11.5 °C -18.2 °C 34496.6 hPa SSE 3.7 km/h   43 % 0 mm
18:45 -11.7 °C -16.5 °C 34533.8 hPa WSW 15.6 km/h 38.8 km/h 55 % 0 mm
18:47 -11.5 °C -18.2 °C 34496.6 hPa WSW 3.1 km/h   43 % 0 mm
18:52 -11.6 °C -18.3 °C 34533.8 hPa WSW 3.1 km/h   43 % 0 mm
18:53 -11.6 °C -18.3 °C 34533.8 hPa Calm     43 % 0 mm
18:55 -11.7 °C -16.5 °C 34533.8 hPa WSW 15.6 km/h 18.2 km/h 55 % 0 mm
18:58 -11.7 °C -18.4 °C 34533.8 hPa Calm     43 % 0 mm
19:00 -11.7 °C -18.4 °C 34533.8 hPa WSW 9 km/h 9 km/h 43 % 0 mm
19:05 -11.7 °C -18.4 °C 34533.8 hPa North 6 km/h 6 km/h 43 % 0 mm
19:06 -11.7 °C -18.4 °C 34533.8 hPa SW 3.1 km/h 3.1 km/h 43 % 0 mm
19:11 -11.7 °C -18.4 °C 34533.8 hPa WSW 15 km/h 15 km/h 43 % 0 mm
19:15 -11.8 °C -16.6 °C 34567.7 hPa WNW 5.1 km/h 20.8 km/h 55 % 0 mm
19:16 -11.3 °C -17.9 °C 34533.8 hPa NW 6 km/h 6 km/h 44 % 0 mm
19:18 -11.3 °C -17.9 °C 34533.8 hPa WNW 20.9 km/h 20.9 km/h 44 % 0 mm
19:19 -11.2 °C -17.8 °C 34533.8 hPa WSW 17.9 km/h 17.9 km/h 44 % 0 mm
19:24 -11.1 °C -17.7 °C 34496.6 hPa SW 15 km/h 15 km/h 44 % 0 mm
19:25 -11.9 °C -16.6 °C 34601.5 hPa SSE 2.6 km/h 5.1 km/h 56 % 0 mm
19:27 -11 °C -17.6 °C 34496.6 hPa SW 11.9 km/h 11.9 km/h 44 % 0 mm
19:31 -10.9 °C -17.6 °C 34496.6 hPa WSW 15 km/h 15 km/h 44 % 0 mm
19:35 -12 °C -16.6 °C 34601.5 hPa Calm   10.3 km/h 57 % 0 mm
19:36 -10.9 °C -17.6 °C 34496.6 hPa WNW 6 km/h 6 km/h 44 % 0 mm
19:41 -10.9 °C -17.6 °C 34533.8 hPa SW 3.1 km/h   44 % 0 mm
19:42 -11 °C -17.6 °C 34533.8 hPa ENE 5.6 km/h 5.6 km/h 44 % 0 mm
19:45 -12.2 °C -16.6 °C 34601.5 hPa Calm   5.1 km/h 58 % 0 mm
19:47 -11.2 °C -17.8 °C 34533.8 hPa ENE 9 km/h 9 km/h 44 % 0 mm
19:48 -11.2 °C -18 °C 34533.8 hPa ENE 6 km/h 6 km/h 43 % 0 mm
19:53 -11.4 °C -18.2 °C 34533.8 hPa East 6 km/h 6.3 km/h 43 % 0 mm
19:55 -12.2 °C -16.6 °C 34601.5 hPa SSW 2.6 km/h 7.7 km/h 58 % 0 mm
19:58 -11.4 °C -18.2 °C 34533.8 hPa ENE 9 km/h 9 km/h 43 % 0 mm
20:03 -11.5 °C -18.2 °C 34533.8 hPa ENE 6 km/h 6 km/h 43 % 0 mm
20:05 -12.2 °C -16.6 °C 34601.5 hPa SW 5.1 km/h 5.1 km/h 58 % 0 mm
20:08 -11.5 °C -18.1 °C 34533.8 hPa West 9 km/h 9 km/h 44 % 0 mm
20:09 -11.5 °C -18.1 °C 34533.8 hPa NW 6 km/h 6 km/h 44 % 0 mm
20:14 -11.6 °C -18.2 °C 34533.8 hPa WNW 6 km/h 6 km/h 44 % 0 mm
20:15 -12.2 °C -16.5 °C 34601.5 hPa SW 7.7 km/h 7.7 km/h 59 % 0 mm
20:19 -11.5 °C -18.1 °C 34533.8 hPa West 6.8 km/h 6.8 km/h 44 % 0 mm
20:21 -11.4 °C -18 °C 34533.8 hPa WNW 6 km/h 6 km/h 44 % 0 mm
20:25 -11.3 °C -17.7 °C 34533.8 hPa WNW 15 km/h 15 km/h 45 % 0 mm
20:26 -11.2 °C -17.7 °C 34533.8 hPa WSW 15 km/h 15 km/h 45 % 0 mm
20:30 -11.1 °C -17.6 °C 34533.8 hPa WSW 15 km/h 15 km/h 45 % 0 mm
20:32 -11.1 °C -17.4 °C 34533.8 hPa West 11.9 km/h 11.9 km/h 46 % 0 mm
20:35 -12.2 °C -16.3 °C 34601.5 hPa SW 5.1 km/h 12.9 km/h 60 % 0 mm
20:37 -11 °C -17.3 °C 34533.8 hPa SW 15 km/h 15 km/h 46 % 0 mm
20:42 -10.9 °C -17.2 °C 34533.8 hPa North 17.9 km/h 17.9 km/h 46 % 0 mm
20:44 -10.9 °C -17.2 °C 34533.8 hPa WNW 11.9 km/h 11.9 km/h 46 % 0 mm
20:45 -12.2 °C -16.3 °C 34601.5 hPa SW 7.7 km/h 12.9 km/h 60 % 0 mm
20:47 -10.9 °C -17.2 °C 34533.8 hPa WSW 10.3 km/h 10.3 km/h 46 % 0 mm
20:50 -10.9 °C -17.2 °C 34533.8 hPa West 20.9 km/h 20.9 km/h 46 % 0 mm
20:52 -10.9 °C -17.2 °C 34533.8 hPa SW 15 km/h 15 km/h 46 % 0 mm
20:55 -10.9 °C -17.2 °C 34567.7 hPa ESE 26.9 km/h 26.9 km/h 46 % 0 mm
21:00 -10.9 °C -17 °C 34567.7 hPa WSW 17.9 km/h 17.9 km/h 47 % 0 mm
21:01 -10.9 °C -17.1 °C 34567.7 hPa SW 15 km/h 15 km/h 47 % 0 mm
21:02 -10.9 °C -17.1 °C 34567.7 hPa West 9 km/h 9 km/h 47 % 0 mm
21:05 -12.3 °C -16.3 °C 34601.5 hPa SW 7.7 km/h 10.3 km/h 61 % 0 mm
21:07 -11 °C -17.1 °C 34533.8 hPa SW 35.7 km/h 35.7 km/h 47 % 0 mm
21:09 -11 °C -17.1 °C 34533.8 hPa NW 15 km/h 15 km/h 47 % 0 mm
21:12 -11.1 °C -17.2 °C 34533.8 hPa WSW 11.9 km/h 11.9 km/h 47 % 0 mm
21:15 -12.3 °C -16.3 °C 34601.5 hPa SW 7.7 km/h 7.7 km/h 61 % 0 mm
21:17 -11.1 °C -17.2 °C 34533.8 hPa WSW 11.9 km/h 11.9 km/h 47 % 0 mm
21:20 -11.1 °C -17.2 °C 34533.8 hPa ESE 17.9 km/h 17.9 km/h 47 % 0 mm
21:25 -11.1 °C -17.1 °C 34567.7 hPa WSW 20.9 km/h 20.9 km/h 48 % 0 mm
21:26 -11.1 °C -17.1 °C 34567.7 hPa WSW 16.1 km/h 16.1 km/h 48 % 0 mm
21:31 -11.1 °C -17.1 °C 34567.7 hPa WNW 23.8 km/h 23.8 km/h 48 % 0 mm
21:34 -11.2 °C -17.1 °C 34567.7 hPa West 17.9 km/h 17.9 km/h 48 % 0 mm
21:35 -12.4 °C -16.4 °C 34601.5 hPa WSW 7.7 km/h 10.3 km/h 61 % 0 mm
21:39 -11.2 °C -16.9 °C 34567.7 hPa WSW 17.9 km/h 17.9 km/h 49 % 0 mm
21:41 -11.2 °C -16.9 °C 34567.7 hPa WSW 26.9 km/h 26.9 km/h 49 % 0 mm
21:44 -11.2 °C -16.8 °C 34567.7 hPa SW 26.9 km/h 26.9 km/h 50 % 0 mm
21:45 -12.4 °C -16.3 °C 34601.5 hPa WSW 12.9 km/h 12.9 km/h 61 % 0 mm
21:49 -11.2 °C -16.8 °C 34567.7 hPa WNW 17.9 km/h 17.9 km/h 50 % 0 mm
21:54 -11.2 °C -16.7 °C 34567.7 hPa WSW 23.8 km/h 23.8 km/h 51 % 0 mm
21:55 -12.5 °C -16.5 °C 34601.5 hPa WSW 7.7 km/h 10.3 km/h 61 % 0 mm
21:59 -11.3 °C -16.7 °C 34567.7 hPa WNW 20.9 km/h 20.9 km/h 51 % 0 mm
22:00 -11.3 °C -16.7 °C 34567.7 hPa North 20.9 km/h 20.9 km/h 51 % 0 mm
22:01 -11.3 °C -16.7 °C 34567.7 hPa SW 23.8 km/h 23.8 km/h 51 % 0 mm
22:05 -11.3 °C -16.7 °C 34567.7 hPa West 20.9 km/h 20.9 km/h 51 % 0 mm
22:08 -11.3 °C -16.6 °C 34567.7 hPa West 15.6 km/h 15.6 km/h 52 % 0 mm
22:11 -11.3 °C -16.6 °C 34567.7 hPa NW 23.8 km/h 23.8 km/h 52 % 0 mm
22:15 -12.6 °C -16.5 °C 34601.5 hPa WSW 5.1 km/h 7.7 km/h 61 % 0 mm
22:16 -11.4 °C -16.7 °C 34567.7 hPa WNW 26.9 km/h 26.9 km/h 52 % 0 mm
22:17 -11.4 °C -16.7 °C 34567.7 hPa WSW 29.8 km/h 29.8 km/h 52 % 0 mm
22:18 -11.4 °C -16.7 °C 34567.7 hPa West 29.8 km/h 29.8 km/h 52 % 0 mm
22:23 -11.4 °C -16.6 °C 34601.5 hPa West 32.8 km/h 32.8 km/h 53 % 0 mm
22:24 -11.4 °C -16.6 °C 34601.5 hPa WSW 27.2 km/h 27.2 km/h 53 % 0 mm
22:25 -12.6 °C -16.5 °C 34601.5 hPa WSW 15.6 km/h 15.6 km/h 61 % 0 mm
22:26 -11.4 °C -16.6 °C 34601.5 hPa West 17.9 km/h 17.9 km/h 53 % 0 mm
22:31 -11.4 °C -16.6 °C 34601.5 hPa WNW 32.8 km/h 32.8 km/h 53 % 0 mm
22:32 -11.4 °C -16.6 °C 34601.5 hPa WSW 29.8 km/h 29.8 km/h 53 % 0 mm
22:35 -12.6 °C -16.7 °C 34601.5 hPa WSW 7.7 km/h 12.9 km/h 60 % 0 mm
22:37 -11.5 °C -16.5 °C 34567.7 hPa West 29.8 km/h 29.8 km/h 54 % 0 mm
22:38 -11.5 °C -16.5 °C 34567.7 hPa West 20.9 km/h 20.9 km/h 54 % 0 mm
22:43 -11.6 °C -16.6 °C 34567.7 hPa WSW 17.9 km/h 17.9 km/h 54 % 0 mm
22:45 -12.7 °C -16.8 °C 34601.5 hPa WSW 7.7 km/h 18.2 km/h 60 % 0 mm
22:48 -11.6 °C -16.6 °C 34567.7 hPa SW 17.9 km/h 17.9 km/h 54 % 0 mm
22:49 -11.6 °C -16.6 °C 34567.7 hPa WNW 17.4 km/h 17.4 km/h 54 % 0 mm
22:54 -11.6 °C -16.4 °C 34567.7 hPa West 32.8 km/h 32.8 km/h 55 % 0 mm
22:55 -11.6 °C -16.4 °C 34567.7 hPa West 15.6 km/h 33.6 km/h 55 % 0 mm
22:59 -11.6 °C -16.4 °C 34567.7 hPa West 23.8 km/h 23.8 km/h 55 % 0 mm
23:00 -11.7 °C -16.5 °C 34567.7 hPa West 17.9 km/h 17.9 km/h 55 % 0 mm
23:05 -11.7 °C -16.5 °C 34567.7 hPa WSW 23.8 km/h 23.8 km/h 55 % 0 mm
23:07 -11.7 °C -16.3 °C 34601.5 hPa West 26.9 km/h 26.9 km/h 56 % 0 mm
23:12 -11.7 °C -16.4 °C 34601.5 hPa WNW 20.9 km/h 20.9 km/h 56 % 0 mm
23:14 -11.7 °C -16.4 °C 34601.5 hPa SSW 26.9 km/h 26.9 km/h 56 % 0 mm
23:15 -12.5 °C -16.7 °C 34601.5 hPa WSW 15.6 km/h 15.6 km/h 59 % 0 mm
23:19 -11.7 °C -16.4 °C 34601.5 hPa WSW 20.9 km/h 20.9 km/h 56 % 0 mm
23:20 -11.7 °C -16.4 °C 34601.5 hPa West 19.2 km/h 19.2 km/h 56 % 0 mm
23:21 -11.7 °C -16.4 °C 34601.5 hPa SW 19.6 km/h 19.6 km/h 56 % 0 mm
23:25 -11.8 °C -16.4 °C 34601.5 hPa West 26.9 km/h 26.9 km/h 56 % 0 mm
23:26 -11.8 °C -16.4 °C 34601.5 hPa WNW 20.9 km/h 20.9 km/h 56 % 0 mm
23:31 -11.8 °C -16.4 °C 34601.5 hPa WSW 17.9 km/h 17.9 km/h 56 % 0 mm
23:33 -11.8 °C -16.4 °C 34601.5 hPa West 26.9 km/h 26.9 km/h 56 % 0 mm
23:35 -12.6 °C -16.8 °C 34601.5 hPa West 7.7 km/h 10.3 km/h 59 % 0 mm
23:36 -11.8 °C -16.4 °C 34601.5 hPa WSW 26.9 km/h 26.9 km/h 56 % 0 mm
23:40 -11.8 °C -16.4 °C 34567.7 hPa West 18.2 km/h 28.5 km/h 56 % 0 mm
23:44 -11.8 °C -16.4 °C 34567.7 hPa WNW 15 km/h 17.4 km/h 56 % 0 mm
23:45 -11.8 °C -16.4 °C 34567.7 hPa West 25.1 km/h 25.1 km/h 56 % 0 mm
23:49 -11.8 °C -16.4 °C 34567.7 hPa West 26.9 km/h 26.9 km/h 56 % 0 mm
23:51 -11.8 °C -16.4 °C 34567.7 hPa WNW 26.9 km/h 26.9 km/h 56 % 0 mm
23:55 -12.8 °C -17.1 °C 34601.5 hPa West 7.7 km/h 10.3 km/h 59 % 0 mm
23:56 -11.8 °C -16.4 °C 34567.7 hPa WNW 29.8 km/h 29.8 km/h 56 % 0 mm
23:57 -11.7 °C -16.4 °C 34567.7 hPa WSW 26.9 km/h 26.9 km/h 56 % 0 mm
Meteo Sesrovires
Elogis d' Weather Underground - 1.75 mb

Guio original per  Jim McMurry - jmcmurry@mwt.net Adaptat per a la plantilla per  Wim van der Kuil - Leuven-Template.eu

Trobareu la nostra informacio del temps tambe a:

Weather Underground

AWEKAS